Time;durP1;ratioP1;P1;durP2;ratioP2;P2;SDS_P1;SDS_P2;PMS_P1;PMS_P2;Temp;Humidity;BMP_temperature;BMP_pressure;BME280_temperature;BME280_humidity;BME280_pressure;Samples;Min_cycle;Max_cycle;Signal;HPM_P1;HPM_P2
2023/01/31 00:01:13;;;;;;;1.65;0.85;;;5.60;99.90;;;;;;4968915;28;20150;-67
2023/01/31 00:03:39;;;;;;;10.88;1.67;;;5.60;99.90;;;;;;4988468;28;20041;-66
2023/01/31 00:06:18;;;;;;;0.50;0.50;;;5.60;99.90;;;;;;4986412;28;20129;-66
2023/01/31 00:08:45;;;;;;;0.10;0.10;;;5.50;99.90;;;;;;4988961;28;20030;-67
2023/01/31 00:11:12;;;;;;;0.10;0.10;;;5.60;99.90;;;;;;4988938;28;20054;-66
2023/01/31 00:13:38;;;;;;;1.17;0.75;;;5.60;99.90;;;;;;4986311;28;20093;-66
2023/01/31 00:16:05;;;;;;;0.10;0.10;;;5.50;99.90;;;;;;4987810;28;20121;-67
2023/01/31 00:18:31;;;;;;;0.28;0.28;;;5.50;99.90;;;;;;4988103;28;20060;-66
2023/01/31 00:20:57;;;;;;;0.00;0.00;;;5.50;99.90;;;;;;4987323;28;20051;-66
2023/01/31 00:23:22;;;;;;;0.65;0.65;;;5.40;99.90;;;;;;4986092;28;20035;-67
2023/01/31 00:25:48;;;;;;;0.10;0.10;;;5.50;99.90;;;;;;4988658;28;20042;-66
2023/01/31 00:28:14;;;;;;;0.10;0.10;;;5.50;99.90;;;;;;4986697;28;20376;-66
2023/01/31 00:30:39;;;;;;;0.10;0.10;;;5.50;99.90;;;;;;4987891;28;20522;-66
2023/01/31 00:33:05;;;;;;;15.07;2.30;;;5.50;99.90;;;;;;4984869;28;20039;-66
2023/01/31 00:35:31;;;;;;;0.10;0.10;;;5.50;99.90;;;;;;4987697;28;20271;-66
2023/01/31 00:37:56;;;;;;;0.10;0.10;;;5.60;99.90;;;;;;4987318;28;20120;-66
2023/01/31 00:40:22;;;;;;;0.10;0.10;;;5.60;99.90;;;;;;4990634;28;20496;-66
2023/01/31 00:42:48;;;;;;;0.10;0.10;;;5.70;99.90;;;;;;4990519;28;20054;-66
2023/01/31 00:45:13;;;;;;;0.10;0.10;;;5.70;99.90;;;;;;4991626;28;20046;-66
2023/01/31 00:47:39;;;;;;;0.10;0.10;;;5.70;99.90;;;;;;4992936;28;20038;-66
2023/01/31 00:50:05;;;;;;;0.17;0.17;;;5.70;99.90;;;;;;4975149;28;20042;-66
2023/01/31 00:52:31;;;;;;;0.20;0.20;;;5.60;99.90;;;;;;4989655;28;20413;-66
2023/01/31 00:54:56;;;;;;;0.32;0.32;;;5.50;99.90;;;;;;4989956;28;20084;-66
2023/01/31 00:57:22;;;;;;;0.20;0.20;;;5.50;99.90;;;;;;4991577;28;20118;-66
2023/01/31 00:59:48;;;;;;;0.10;0.10;;;5.50;99.90;;;;;;4991961;28;20038;-66
2023/01/31 01:02:14;;;;;;;0.10;0.10;;;5.30;99.90;;;;;;4989799;28;20080;-66
2023/01/31 01:04:39;;;;;;;0.10;0.10;;;5.30;99.90;;;;;;4975647;28;20077;-66
2023/01/31 01:07:05;;;;;;;0.25;0.25;;;5.30;99.90;;;;;;4974015;28;20475;-66
2023/01/31 01:09:31;;;;;;;0.10;0.10;;;5.30;99.90;;;;;;4990867;28;20104;-66
2023/01/31 01:11:56;;;;;;;0.47;0.40;;;5.30;99.90;;;;;;4990258;28;20117;-66
2023/01/31 01:14:22;;;;;;;0.10;0.10;;;5.30;99.90;;;;;;4988737;28;20127;-67
2023/01/31 01:16:48;;;;;;;0.10;0.10;;;5.30;99.90;;;;;;4989869;28;20046;-66
2023/01/31 01:19:18;;;;;;;0.10;0.10;;;5.30;99.90;;;;;;4973458;28;20501;-65
2023/01/31 01:21:44;;;;;;;0.80;0.70;;;5.30;99.90;;;;;;4991744;28;20065;-66
2023/01/31 01:24:16;;;;;;;0.80;0.80;;;5.30;99.90;;;;;;4988521;28;20481;-66
2023/01/31 01:26:43;;;;;;;0.55;0.55;;;5.40;99.90;;;;;;4991446;28;20050;-66
2023/01/31 01:29:09;;;;;;;0.10;0.10;;;5.40;99.90;;;;;;4990321;28;20042;-66
2023/01/31 01:31:36;;;;;;;0.10;0.10;;;5.40;99.90;;;;;;4990154;28;20038;-66
2023/01/31 01:34:10;;;;;;;0.20;0.20;;;5.50;99.90;;;;;;4989906;28;20085;-66
2023/01/31 01:36:36;;;;;;;0.10;0.10;;;5.50;99.90;;;;;;4990239;28;20085;-66
2023/01/31 01:39:08;;;;;;;0.00;0.00;;;5.40;99.90;;;;;;4990184;28;20039;-66
2023/01/31 01:41:33;;;;;;;0.10;0.10;;;5.40;99.90;;;;;;4980030;28;20042;-66
2023/01/31 01:44:01;;;;;;;3.30;2.83;;;5.40;99.90;;;;;;4988596;28;20097;-67
2023/01/31 01:46:42;;;;;;;1.65;1.55;;;5.40;99.90;;;;;;4988413;28;20050;-66
2023/01/31 01:49:29;;;;;;;0.20;0.20;;;5.30;99.90;;;;;;4989352;28;20054;-66
2023/01/31 01:51:59;;;;;;;0.10;0.10;;;5.30;99.90;;;;;;4970995;28;20050;-67
2023/01/31 01:54:33;;;;;;;0.10;0.10;;;5.30;99.90;;;;;;4988534;28;20065;-67
2023/01/31 01:57:01;;;;;;;0.25;0.25;;;5.40;99.90;;;;;;4970024;28;20474;-66
2023/01/31 01:59:52;;;;;;;0.10;0.10;;;5.40;99.90;;;;;;4985875;28;20049;-66
2023/01/31 02:02:18;;;;;;;1.23;0.40;;;5.50;99.90;;;;;;4990082;28;20039;-66
2023/01/31 02:04:47;;;;;;;0.10;0.10;;;5.50;99.90;;;;;;4989312;28;20046;-66
2023/01/31 02:07:13;;;;;;;0.10;0.10;;;5.60;99.90;;;;;;4988315;28;20279;-66
2023/01/31 02:10:14;;;;;;;1.40;1.30;;;5.60;99.90;;;;;;4973281;28;20526;-67
2023/01/31 02:12:40;;;;;;;12.98;1.35;;;5.60;99.90;;;;;;4985702;28;20058;-66
2023/01/31 02:15:07;;;;;;;0.10;0.10;;;5.60;99.90;;;;;;4988780;28;20069;-66
2023/01/31 02:17:32;;;;;;;0.10;0.10;;;5.50;99.90;;;;;;4990103;28;20353;-66
2023/01/31 02:20:22;;;;;;;0.00;0.00;;;5.50;99.90;;;;;;4987730;28;20130;-66
2023/01/31 02:23:16;;;;;;;0.45;0.45;;;5.60;99.90;;;;;;4988100;28;20097;-66
2023/01/31 02:26:12;;;;;;;0.10;0.10;;;5.60;99.90;;;;;;4989582;28;20078;-67
2023/01/31 02:29:00;;;;;;;0.00;0.00;;;5.50;99.90;;;;;;4975888;28;20437;-66
2023/01/31 02:31:35;;;;;;;0.13;0.13;;;5.60;99.90;;;;;;4951804;28;20129;-66
2023/01/31 02:34:26;;;;;;;1.00;1.00;;;5.60;99.90;;;;;;4981731;28;20587;-68
2023/01/31 02:37:04;;;;;;;0.10;0.10;;;5.50;99.90;;;;;;4981404;28;20050;-67
2023/01/31 02:39:36;;;;;;;0.10;0.10;;;5.50;99.90;;;;;;4989415;28;20046;-66
2023/01/31 02:42:27;;;;;;;0.50;0.50;;;5.40;99.90;;;;;;4971926;28;20061;-66
2023/01/31 02:45:15;;;;;;;0.10;0.10;;;5.40;99.90;;;;;;4987091;28;20057;-66
2023/01/31 02:48:03;;;;;;;0.43;0.40;;;5.40;99.90;;;;;;4971908;28;20399;-66
2023/01/31 02:50:37;;;;;;;0.10;0.10;;;5.40;99.90;;;;;;4987557;28;20481;-67
2023/01/31 02:53:33;;;;;;;;;;;5.40;99.90;;;;;;4989489;28;20049;-66
2023/01/31 02:56:16;;;;;;;0.10;0.10;;;5.30;99.90;;;;;;4982179;28;19929;-66
2023/01/31 02:58:48;;;;;;;0.10;0.10;;;5.30;99.90;;;;;;4989776;28;20069;-66
2023/01/31 03:01:19;;;;;;;10.65;2.83;;;5.30;99.90;;;;;;4988238;28;20050;-66
2023/01/31 03:03:45;;;;;;;0.10;0.10;;;5.30;99.90;;;;;;4986408;28;20066;-66
2023/01/31 03:06:21;;;;;;;1.05;1.00;;;5.40;99.90;;;;;;4988344;28;20383;-67
2023/01/31 03:08:50;;;;;;;0.20;0.20;;;5.30;99.90;;;;;;4988937;28;20046;-66
2023/01/31 03:11:16;;;;;;;0.00;0.00;;;5.40;99.90;;;;;;4989735;28;20034;-66
2023/01/31 03:14:04;;;;;;;0.10;0.10;;;5.40;99.90;;;;;;4987623;28;20100;-66
2023/01/31 03:19:45;;;;;;;0.52;0.52;;;5.40;99.90;;;;;;4970189;28;20046;-66
2023/01/31 03:22:17;;;;;;;0.40;0.40;;;5.40;99.90;;;;;;4987102;28;20149;-66
2023/01/31 03:24:46;;;;;;;0.20;0.20;;;5.50;99.90;;;;;;4986796;28;20129;-66
2023/01/31 03:27:12;;;;;;;1.10;1.08;;;5.50;99.90;;;;;;4988707;28;20073;-66
2023/01/31 03:29:38;;;;;;;4.18;2.28;;;5.60;99.90;;;;;;4987113;28;20046;-67
2023/01/31 03:32:15;;;;;;;0.10;0.10;;;5.60;99.90;;;;;;4988294;28;20049;-66
2023/01/31 03:34:41;;;;;;;0.40;0.40;;;5.60;99.90;;;;;;4970333;28;20488;-66
2023/01/31 03:37:32;;;;;;;0.20;0.20;;;5.60;99.90;;;;;;4982187;28;20168;-66
2023/01/31 03:40:17;;;;;;;0.10;0.10;;;5.70;99.90;;;;;;4984180;28;20046;-66
2023/01/31 03:42:49;;;;;;;0.47;0.47;;;5.70;99.90;;;;;;4987719;28;20133;-66
2023/01/31 03:45:28;;;;;;;0.10;0.10;;;5.70;99.90;;;;;;4986699;28;20503;-66
2023/01/31 03:47:56;;;;;;;0.10;0.10;;;5.70;99.90;;;;;;4988193;28;20049;-66
2023/01/31 03:50:30;;;;;;;3.38;1.15;;;5.80;99.90;;;;;;4989336;28;20057;-66
2023/01/31 03:53:08;;;;;;;0.90;0.90;;;5.80;99.90;;;;;;4964176;28;20124;-67
2023/01/31 03:55:45;;;;;;;0.10;0.10;;;5.80;99.90;;;;;;4985651;28;20054;-67
2023/01/31 03:58:13;;;;;;;0.10;0.10;;;5.80;99.90;;;;;;4981344;28;20500;-66
2023/01/31 04:00:42;;;;;;;0.10;0.10;;;5.90;99.90;;;;;;4985334;28;20478;-66
2023/01/31 04:03:29;;;;;;;1.55;1.45;;;5.90;99.90;;;;;;4987439;28;20565;-66
2023/01/31 04:05:55;;;;;;;0.25;0.25;;;5.90;99.90;;;;;;4986763;28;20105;-66
2023/01/31 04:08:21;;;;;;;0.57;0.57;;;6.00;99.90;;;;;;4988580;28;20610;-66
2023/01/31 04:10:47;;;;;;;0.43;0.43;;;6.00;99.90;;;;;;4988690;28;20117;-66
2023/01/31 04:13:13;;;;;;;0.10;0.10;;;6.10;99.90;;;;;;4985569;28;20073;-66
2023/01/31 04:15:38;;;;;;;1.55;1.45;;;6.10;99.90;;;;;;4973779;28;20054;-66
2023/01/31 04:18:04;;;;;;;6.07;2.28;;;6.20;99.90;;;;;;4991302;28;20046;-65
2023/01/31 04:20:30;;;;;;;0.10;0.10;;;6.30;99.90;;;;;;4987319;28;20055;-66
2023/01/31 04:22:55;;;;;;;1.40;1.35;;;6.20;99.90;;;;;;4991152;28;20057;-66
2023/01/31 04:25:21;;;;;;;1.52;1.08;;;6.30;99.90;;;;;;4992729;28;20125;-66
2023/01/31 04:27:47;;;;;;;8.15;3.95;;;6.30;99.90;;;;;;4990914;28;20453;-66
2023/01/31 04:30:13;;;;;;;0.10;0.10;;;6.30;99.90;;;;;;4991487;28;20038;-66
2023/01/31 04:32:38;;;;;;;0.10;0.10;;;6.30;99.90;;;;;;4989372;28;20514;-66
2023/01/31 04:35:04;;;;;;;0.45;0.45;;;6.30;99.90;;;;;;4990533;28;20035;-66
2023/01/31 04:37:30;;;;;;;0.32;0.32;;;6.30;99.90;;;;;;4991918;28;20074;-65
2023/01/31 04:39:55;;;;;;;0.82;0.82;;;6.30;99.90;;;;;;4991984;28;20689;-66
2023/01/31 04:42:21;;;;;;;0.38;0.38;;;6.30;99.90;;;;;;4991923;28;20054;-66
2023/01/31 04:44:47;;;;;;;0.10;0.10;;;6.30;99.90;;;;;;4989276;28;20038;-66
2023/01/31 04:47:12;;;;;;;41.00;5.57;;;6.30;99.90;;;;;;4990210;28;20042;-66
2023/01/31 04:49:38;;;;;;;0.10;0.10;;;6.30;99.90;;;;;;4991195;28;20038;-66
2023/01/31 04:52:04;;;;;;;0.10;0.10;;;6.30;99.90;;;;;;4990532;28;20402;-65
2023/01/31 04:54:30;;;;;;;0.20;0.20;;;6.30;99.90;;;;;;4989892;28;20043;-66
2023/01/31 04:56:56;;;;;;;0.03;0.03;;;6.30;99.90;;;;;;4990151;28;20049;-65
2023/01/31 04:59:21;;;;;;;0.63;0.63;;;6.30;99.90;;;;;;4991431;28;20295;-66
2023/01/31 05:01:47;;;;;;;0.10;0.10;;;6.30;99.90;;;;;;4989767;28;20041;-66
2023/01/31 05:04:13;;;;;;;8.77;3.13;;;6.30;99.90;;;;;;4973586;28;20094;-66
2023/01/31 05:06:39;;;;;;;0.30;0.30;;;6.30;99.90;;;;;;4991301;28;20050;-65
2023/01/31 05:09:05;;;;;;;0.10;0.10;;;6.30;99.90;;;;;;4991085;28;20030;-66
2023/01/31 05:11:31;;;;;;;0.38;0.38;;;6.30;99.90;;;;;;4974166;28;20181;-66
2023/01/31 05:13:56;;;;;;;0.08;0.08;;;6.30;99.90;;;;;;4990793;28;20117;-66
2023/01/31 05:16:22;;;;;;;0.10;0.10;;;6.40;99.90;;;;;;4991007;28;20047;-66
2023/01/31 05:18:49;;;;;;;0.10;0.10;;;6.40;99.90;;;;;;4991368;28;20053;-66
2023/01/31 05:21:15;;;;;;;0.10;0.10;;;6.40;99.90;;;;;;4990531;28;20101;-66
2023/01/31 05:23:41;;;;;;;5.35;1.75;;;6.40;99.90;;;;;;4987665;28;20043;-66
2023/01/31 05:26:06;;;;;;;0.93;0.93;;;6.40;99.90;;;;;;4989283;28;20442;-66
2023/01/31 05:28:32;;;;;;;2.83;1.63;;;6.40;99.90;;;;;;4991841;28;20050;-66
2023/01/31 05:31:04;;;;;;;0.57;0.55;;;6.50;99.90;;;;;;4989711;28;20038;-66
2023/01/31 05:33:30;;;;;;;0.10;0.10;;;6.50;99.90;;;;;;4985581;28;20050;-66
2023/01/31 05:35:57;;;;;;;0.10;0.10;;;6.50;99.90;;;;;;4987207;28;20113;-66
2023/01/31 05:38:22;;;;;;;1.13;1.05;;;6.50;99.90;;;;;;4991053;28;20500;-66
2023/01/31 05:40:51;;;;;;;0.10;0.10;;;6.50;99.90;;;;;;4990400;28;20050;-66
2023/01/31 05:43:17;;;;;;;0.00;0.00;;;6.50;99.90;;;;;;4988214;28;20115;-66
2023/01/31 05:45:44;;;;;;;0.28;0.28;;;6.50;99.90;;;;;;4971252;28;20051;-66
2023/01/31 05:48:10;;;;;;;1.27;1.17;;;6.60;99.90;;;;;;4991229;28;20045;-66
2023/01/31 05:50:35;;;;;;;0.10;0.10;;;6.50;99.90;;;;;;4989867;28;20480;-67
2023/01/31 05:53:04;;;;;;;0.15;0.15;;;6.50;99.90;;;;;;4990376;28;20254;-66
2023/01/31 05:55:30;;;;;;;0.10;0.10;;;6.50;99.90;;;;;;4990371;28;20137;-65
2023/01/31 05:57:56;;;;;;;0.57;0.52;;;6.50;99.90;;;;;;4984843;28;20125;-66
2023/01/31 06:00:22;;;;;;;0.10;0.10;;;6.50;99.90;;;;;;4990928;28;20085;-70
2023/01/31 06:02:48;;;;;;;0.10;0.10;;;6.60;99.90;;;;;;4990175;28;20042;-68
2023/01/31 06:05:15;;;;;;;0.20;0.20;;;6.60;99.90;;;;;;4977501;28;20055;-68
2023/01/31 06:07:41;;;;;;;2.70;1.70;;;6.60;99.90;;;;;;4973593;28;20054;-68
2023/01/31 06:10:08;;;;;;;1.05;1.05;;;6.60;99.90;;;;;;4990018;28;20053;-67
2023/01/31 06:12:34;;;;;;;0.98;0.90;;;6.60;99.90;;;;;;4987372;28;20038;-66
2023/01/31 06:15:01;;;;;;;0.43;0.43;;;6.70;99.90;;;;;;4990531;28;20106;-66
2023/01/31 06:17:26;;;;;;;0.45;0.45;;;6.60;99.90;;;;;;4990398;28;20133;-66
2023/01/31 06:19:52;;;;;;;22.02;4.68;;;6.60;99.90;;;;;;4988802;28;20124;-66
2023/01/31 06:22:18;;;;;;;0.55;0.55;;;6.70;99.90;;;;;;4987743;28;20052;-66
2023/01/31 06:24:44;;;;;;;0.05;0.05;;;6.70;99.90;;;;;;4985906;28;20050;-66
2023/01/31 06:27:10;;;;;;;0.10;0.10;;;6.70;99.90;;;;;;4988260;28;20463;-65
2023/01/31 06:29:35;;;;;;;0.52;0.52;;;6.60;99.90;;;;;;4988896;28;20125;-66
2023/01/31 06:32:01;;;;;;;0.63;0.63;;;6.60;99.90;;;;;;4981297;28;20507;-66
2023/01/31 06:34:27;;;;;;;0.10;0.10;;;6.50;99.90;;;;;;4989215;28;20092;-66
2023/01/31 06:36:52;;;;;;;0.88;0.88;;;6.50;99.90;;;;;;4988401;28;20038;-67
2023/01/31 06:39:18;;;;;;;14.05;0.95;;;6.50;99.90;;;;;;4988839;28;20769;-66
2023/01/31 06:41:44;;;;;;;0.10;0.10;;;6.50;99.90;;;;;;4988529;28;20096;-66
2023/01/31 06:44:09;;;;;;;0.85;0.73;;;6.50;99.90;;;;;;4987838;28;20035;-67
2023/01/31 06:46:35;;;;;;;0.30;0.30;;;6.50;99.90;;;;;;4988570;28;20046;-66
2023/01/31 06:49:01;;;;;;;3.92;3.17;;;6.40;99.90;;;;;;4987405;28;20109;-66
2023/01/31 06:51:27;;;;;;;0.00;0.00;;;6.50;99.90;;;;;;4988054;28;20061;-66
2023/01/31 06:53:55;;;;;;;0.32;0.32;;;6.50;99.90;;;;;;4969365;28;20412;-66
2023/01/31 06:56:21;;;;;;;0.98;0.90;;;6.40;99.90;;;;;;4987996;28;20124;-67
2023/01/31 06:58:47;;;;;;;0.05;0.05;;;6.50;99.90;;;;;;4988395;28;20133;-66
2023/01/31 07:01:14;;;;;;;3.97;2.63;;;6.40;99.90;;;;;;4987226;28;20192;-67
2023/01/31 07:03:40;;;;;;;0.10;0.10;;;6.50;99.90;;;;;;4969947;28;20121;-67
2023/01/31 07:06:07;;;;;;;0.10;0.10;;;6.50;99.90;;;;;;4988436;28;20117;-68
2023/01/31 07:08:34;;;;;;;0.00;0.00;;;6.50;99.90;;;;;;4987752;28;20761;-67
2023/01/31 07:11:02;;;;;;;0.15;0.15;;;6.50;99.90;;;;;;4986720;28;20457;-67
2023/01/31 07:13:29;;;;;;;0.90;0.90;;;6.50;99.90;;;;;;4986184;28;20513;-65
2023/01/31 07:15:56;;;;;;;1.25;1.08;;;6.50;99.90;;;;;;4984811;28;20065;-66
2023/01/31 07:18:21;;;;;;;2.20;2.00;;;6.50;99.90;;;;;;4972149;28;20058;-66
2023/01/31 07:20:49;;;;;;;0.10;0.10;;;6.50;99.90;;;;;;4988178;28;20042;-67
2023/01/31 07:23:15;;;;;;;0.10;0.10;;;6.50;99.90;;;;;;4984940;28;20984;-67
2023/01/31 07:25:40;;;;;;;0.10;0.10;;;6.50;99.90;;;;;;4988027;28;20046;-67
2023/01/31 07:28:13;;;;;;;0.10;0.10;;;6.50;99.90;;;;;;4985618;28;20398;-66
2023/01/31 07:30:42;;;;;;;0.52;0.40;;;6.50;99.90;;;;;;4985641;28;20046;-67
2023/01/31 07:33:09;;;;;;;0.10;0.10;;;6.50;99.90;;;;;;4987105;28;20478;-66
2023/01/31 07:35:35;;;;;;;0.10;0.10;;;6.50;99.90;;;;;;4988343;28;20050;-66
2023/01/31 07:38:00;;;;;;;0.28;0.28;;;6.50;99.90;;;;;;4987232;28;20390;-66
2023/01/31 07:40:29;;;;;;;0.10;0.10;;;6.50;99.90;;;;;;4986303;28;20416;-68
2023/01/31 07:42:58;;;;;;;0.00;0.00;;;6.50;99.90;;;;;;4985708;28;20046;-66
2023/01/31 07:45:25;;;;;;;0.10;0.10;;;6.60;99.90;;;;;;4982728;28;20046;-66
2023/01/31 07:47:51;;;;;;;0.15;0.15;;;6.60;99.90;;;;;;4987721;28;20626;-66
2023/01/31 07:50:21;;;;;;;0.10;0.10;;;6.60;99.90;;;;;;4983735;28;20042;-66
2023/01/31 07:52:47;;;;;;;0.10;0.10;;;6.60;99.90;;;;;;4986995;28;20536;-66
2023/01/31 07:55:13;;;;;;;1.55;1.45;;;6.60;99.90;;;;;;4982452;28;20050;-68
2023/01/31 07:57:39;;;;;;;1.45;0.75;;;6.60;99.90;;;;;;4981757;28;20038;-66
2023/01/31 08:03:31;;;;;;;0.10;0.10;;;6.60;99.90;;;;;;4982528;28;20066;-67
2023/01/31 08:05:35;;;;;;;0.32;0.32;;;6.70;99.90;;;;;;4981897;28;20068;-65
2023/01/31 08:08:09;;;;;;;0.52;0.52;;;6.70;99.90;;;;;;4981886;28;20042;-65
2023/01/31 08:10:35;;;;;;;0.10;0.10;;;6.70;99.90;;;;;;4979892;28;20050;-65
2023/01/31 08:13:01;;;;;;;0.30;0.30;;;6.70;99.90;;;;;;4980988;28;20043;-66
2023/01/31 08:15:26;;;;;;;0.10;0.10;;;6.70;99.90;;;;;;4984522;28;20065;-66
2023/01/31 08:17:55;;;;;;;0.10;0.10;;;6.80;99.90;;;;;;4984290;28;20451;-66
2023/01/31 08:20:21;;;;;;;2.38;2.20;;;6.80;99.90;;;;;;4985090;28;20034;-66
2023/01/31 08:22:47;;;;;;;3.50;1.45;;;6.80;99.90;;;;;;4966923;28;20105;-66
2023/01/31 08:25:12;;;;;;;0.10;0.10;;;6.80;99.90;;;;;;4985052;28;20057;-66
2023/01/31 08:27:38;;;;;;;1.13;1.13;;;6.80;99.90;;;;;;4987549;28;20041;-66
2023/01/31 08:30:04;;;;;;;0.20;0.20;;;6.80;99.90;;;;;;4985922;28;20050;-66
2023/01/31 08:32:30;;;;;;;0.13;0.13;;;6.80;99.90;;;;;;4985338;28;20042;-66
2023/01/31 08:34:58;;;;;;;0.98;0.98;;;6.90;99.90;;;;;;4987126;28;20088;-66
2023/01/31 08:37:23;;;;;;;1.02;0.98;;;6.90;99.90;;;;;;4986708;28;20049;-66
2023/01/31 08:39:49;;;;;;;0.20;0.20;;;6.90;99.90;;;;;;4969859;28;20042;-66
2023/01/31 08:42:15;;;;;;;0.10;0.10;;;6.90;99.90;;;;;;4988228;28;20034;-66
2023/01/31 08:44:42;;;;;;;0.10;0.10;;;6.90;99.90;;;;;;4988030;28;20054;-66
2023/01/31 08:47:08;;;;;;;0.15;0.15;;;6.90;99.90;;;;;;4986471;28;20077;-67
2023/01/31 08:49:35;;;;;;;0.25;0.25;;;6.90;99.90;;;;;;4987631;28;20482;-66
2023/01/31 08:52:01;;;;;;;0.57;0.57;;;6.90;99.90;;;;;;4970313;28;20051;-66
2023/01/31 08:54:27;;;;;;;1.95;0.22;;;7.00;99.90;;;;;;4968531;28;20047;-66
2023/01/31 08:56:53;;;;;;;1.55;1.45;;;7.00;99.90;;;;;;4987173;28;20129;-67
2023/01/31 08:59:18;;;;;;;0.10;0.10;;;6.90;99.90;;;;;;4987169;28;20043;-67
2023/01/31 09:01:45;;;;;;;0.77;0.77;;;7.00;99.90;;;;;;4968486;28;20054;-66
2023/01/31 09:04:11;;;;;;;2.60;1.60;;;7.00;99.90;;;;;;4968716;28;20121;-66
2023/01/31 09:06:37;;;;;;;0.10;0.10;;;7.00;99.90;;;;;;4991155;28;20049;-66
2023/01/31 09:09:03;;;;;;;1.75;1.65;;;7.10;99.90;;;;;;4988951;28;20398;-66
2023/01/31 09:11:29;;;;;;;0.00;0.00;;;7.10;99.90;;;;;;4992093;28;20042;-66
2023/01/31 09:13:55;;;;;;;0.47;0.47;;;7.10;99.90;;;;;;4989730;28;20038;-66
2023/01/31 09:16:21;;;;;;;1.10;1.05;;;7.20;99.90;;;;;;4989796;28;20157;-66
2023/01/31 09:18:47;;;;;;;0.10;0.10;;;7.20;99.90;;;;;;4971145;28;20062;-66
2023/01/31 09:21:16;;;;;;;0.63;0.63;;;7.20;99.90;;;;;;4988819;28;20054;-66
2023/01/31 09:23:42;;;;;;;0.85;0.85;;;7.20;99.90;;;;;;4988541;28;20402;-66
2023/01/31 09:26:08;;;;;;;0.10;0.10;;;7.20;99.90;;;;;;4985026;28;20050;-66
2023/01/31 09:28:34;;;;;;;0.70;0.32;;;7.20;99.90;;;;;;4990198;28;20038;-66
2023/01/31 09:31:08;;;;;;;0.52;0.52;;;7.20;99.90;;;;;;4989028;28;20042;-66
2023/01/31 09:33:34;;;;;;;0.10;0.10;;;7.20;99.90;;;;;;4990849;28;20054;-66
2023/01/31 09:36:20;;;;;;;0.10;0.10;;;7.20;99.90;;;;;;4988726;28;20508;-66
2023/01/31 09:38:47;;;;;;;0.15;0.15;;;7.20;99.90;;;;;;4990616;28;20054;-66
2023/01/31 09:41:35;;;;;;;2.08;1.58;;;7.20;99.90;;;;;;4983653;28;20054;-66
2023/01/31 09:44:06;;;;;;;0.10;0.10;;;7.20;99.90;;;;;;4983261;28;20073;-66
2023/01/31 09:46:36;;;;;;;0.10;0.10;;;7.20;99.90;;;;;;4972641;28;20060;-66
2023/01/31 09:49:08;;;;;;;0.10;0.10;;;7.20;99.90;;;;;;4976604;28;20427;-66
2023/01/31 09:51:34;;;;;;;0.10;0.10;;;7.20;99.90;;;;;;4986966;28;20165;-66
2023/01/31 09:54:01;;;;;;;1.10;0.85;;;7.20;99.90;;;;;;4989530;28;20050;-65
2023/01/31 09:56:41;;;;;;;3.50;1.45;;;7.20;99.90;;;;;;4990558;28;20441;-64
2023/01/31 09:59:29;;;;;;;0.10;0.10;;;7.10;99.90;;;;;;4972800;28;20105;-66
2023/01/31 10:02:09;;;;;;;0.20;0.20;;;7.10;99.90;;;;;;4990653;28;20053;-66
2023/01/31 10:05:02;;;;;;;0.20;0.20;;;7.10;99.90;;;;;;4989079;28;20513;-68
2023/01/31 10:07:35;;;;;;;0.10;0.10;;;7.10;99.90;;;;;;4989944;28;20047;-68
2023/01/31 10:10:35;;;;;;;0.10;0.10;;;7.10;99.90;;;;;;4988918;28;20116;-68
2023/01/31 10:13:15;;;;;;;0.10;0.10;;;7.20;99.90;;;;;;4986129;28;20046;-68
2023/01/31 10:15:55;;;;;;;0.73;0.73;;;7.20;99.90;;;;;;4988215;28;20050;-68
2023/01/31 10:18:36;;;;;;;0.15;0.15;;;7.20;99.90;;;;;;4989499;28;20117;-68
2023/01/31 10:21:18;;;;;;;5.35;0.68;;;7.20;99.90;;;;;;4988727;28;20302;-68
2023/01/31 10:24:16;;;;;;;0.10;0.10;;;7.20;99.90;;;;;;4972989;28;20046;-66
2023/01/31 10:26:45;;;;;;;0.20;0.20;;;7.20;99.90;;;;;;4969156;28;20054;-66
2023/01/31 10:29:27;;;;;;;0.30;0.30;;;7.30;99.90;;;;;;4989817;28;20050;-66
2023/01/31 10:31:59;;;;;;;1.52;1.00;;;7.30;99.90;;;;;;4976940;28;20034;-66
2023/01/31 10:35:14;;;;;;;42.05;1.77;;;7.30;99.90;;;;;;4989218;28;20046;-68
2023/01/31 10:37:55;;;;;;;9.80;2.83;;;7.40;99.90;;;;;;4953708;28;20130;-68
2023/01/31 10:40:37;;;;;;;0.63;0.55;;;7.40;99.90;;;;;;4947019;28;20487;-68
2023/01/31 10:43:17;;;;;;;0.50;0.50;;;7.40;99.90;;;;;;4979415;28;20058;-68
2023/01/31 10:45:43;;;;;;;0.10;0.10;;;7.50;99.90;;;;;;4987246;28;20121;-68
2023/01/31 10:48:16;;;;;;;3.58;3.25;;;7.50;99.90;;;;;;4988636;28;20213;-68
2023/01/31 10:51:02;;;;;;;0.38;0.38;;;7.50;99.90;;;;;;4970087;28;20050;-68
2023/01/31 10:53:57;;;;;;;0.50;0.50;;;7.60;99.90;;;;;;4986856;28;20039;-68
2023/01/31 10:56:40;;;;;;;0.95;0.52;;;7.60;99.90;;;;;;4987852;28;20675;-68
2023/01/31 10:59:21;;;;;;;0.10;0.10;;;7.60;99.90;;;;;;4988704;28;20050;-68
2023/01/31 11:01:46;;;;;;;0.25;0.25;;;7.70;99.90;;;;;;4983316;28;20038;-69
2023/01/31 11:04:39;;;;;;;1.10;1.08;;;7.70;99.90;;;;;;4987772;28;20055;-68
2023/01/31 11:07:05;;;;;;;0.50;0.50;;;7.70;99.90;;;;;;4988852;28;20053;-68
2023/01/31 11:09:41;;;;;;;1.00;0.93;;;7.80;99.90;;;;;;4972473;28;20042;-68
2023/01/31 11:12:07;;;;;;;2.17;1.38;;;7.80;99.90;;;;;;4986301;28;20057;-70
2023/01/31 11:14:35;;;;;;;0.10;0.10;;;7.80;99.90;;;;;;4967830;28;20058;-69
2023/01/31 11:17:05;;;;;;;0.10;0.10;;;7.90;99.90;;;;;;4989274;28;20035;-68
2023/01/31 11:19:39;;;;;;;0.10;0.10;;;7.90;99.90;;;;;;4988518;28;20073;-68
2023/01/31 11:22:07;;;;;;;0.10;0.10;;;7.90;99.90;;;;;;4971035;28;20076;-68
2023/01/31 11:24:40;;;;;;;0.10;0.10;;;7.90;99.90;;;;;;4987550;28;20050;-67
2023/01/31 11:27:14;;;;;;;0.10;0.10;;;8.00;99.90;;;;;;4988559;28;20095;-68
2023/01/31 11:29:49;;;;;;;0.20;0.20;;;8.20;99.90;;;;;;4987163;28;20038;-68
2023/01/31 11:32:30;;;;;;;1.50;1.40;;;8.20;99.90;;;;;;4988208;28;20031;-68
2023/01/31 11:35:14;;;;;;;0.00;0.00;;;8.20;99.90;;;;;;4987804;28;20051;-66
2023/01/31 11:38:01;;;;;;;0.10;0.10;;;8.30;99.90;;;;;;4987748;28;20050;-66
2023/01/31 11:40:31;;;;;;;0.30;0.30;;;8.30;99.90;;;;;;4983544;28;20039;-66
2023/01/31 11:43:03;;;;;;;0.70;0.70;;;8.40;99.90;;;;;;4968921;28;20053;-66
2023/01/31 11:45:42;;;;;;;0.20;0.20;;;8.30;99.90;;;;;;4965120;28;20038;-66
2023/01/31 11:48:35;;;;;;;0.10;0.10;;;8.40;99.90;;;;;;4988126;28;20099;-66
2023/01/31 11:51:02;;;;;;;0.10;0.10;;;8.40;99.90;;;;;;4986379;28;20534;-66
2023/01/31 11:53:37;;;;;;;0.20;0.20;;;8.50;99.90;;;;;;4989284;28;20055;-66
2023/01/31 11:56:13;;;;;;;4.15;2.10;;;8.50;99.90;;;;;;4985288;28;20121;-66
2023/01/31 11:58:40;;;;;;;0.82;0.82;;;8.60;99.90;;;;;;4989180;28;20100;-66
2023/01/31 12:01:19;;;;;;;0.10;0.10;;;8.60;99.90;;;;;;4970465;28;20039;-66
2023/01/31 12:03:57;;;;;;;0.47;0.47;;;8.60;99.90;;;;;;4987787;28;20464;-67
2023/01/31 12:06:35;;;;;;;1.20;1.10;;;8.60;99.90;;;;;;4985467;28;20058;-66
2023/01/31 12:09:05;;;;;;;0.10;0.10;;;8.60;99.90;;;;;;4986826;28;20154;-67
2023/01/31 12:11:33;;;;;;;0.20;0.20;;;8.60;99.90;;;;;;4969347;28;20050;-66
2023/01/31 12:14:05;;;;;;;0.52;0.52;;;8.70;99.90;;;;;;4983004;28;20758;-67
2023/01/31 12:16:33;;;;;;;0.10;0.10;;;9.00;99.90;;;;;;4987242;28;20047;-66
2023/01/31 12:19:10;;;;;;;1.10;1.10;;;9.20;99.90;;;;;;4970342;28;20038;-66
2023/01/31 12:21:54;;;;;;;0.25;0.25;;;9.40;99.90;;;;;;4987355;28;20081;-66
2023/01/31 12:24:38;;;;;;;0.32;0.32;;;9.40;99.90;;;;;;4984050;28;20052;-66
2023/01/31 12:27:16;;;;;;;;;;;9.40;99.90;;;;;;4979255;28;20140;-66
2023/01/31 12:30:05;;;;;;;3.47;1.58;;;9.60;99.90;;;;;;4986298;28;20385;-67
2023/01/31 12:33:08;;;;;;;0.75;0.75;;;9.90;99.90;;;;;;4968923;28;20064;-69
2023/01/31 12:35:48;;;;;;;0.57;0.57;;;9.80;99.90;;;;;;4964271;28;20609;-68
2023/01/31 12:39:07;;;;;;;1.20;1.00;;;9.90;99.90;;;;;;4990066;28;20125;-67
2023/01/31 12:41:40;;;;;;;0.45;0.45;;;10.10;99.90;;;;;;4931857;29;20411;-68
2023/01/31 12:44:28;;;;;;;0.10;0.10;;;9.90;99.90;;;;;;4989963;28;20406;-68
2023/01/31 12:47:03;;;;;;;0.43;0.43;;;9.80;99.90;;;;;;4987488;28;20047;-67
2023/01/31 12:49:46;;;;;;;0.10;0.10;;;9.60;99.90;;;;;;4989916;28;20480;-67
2023/01/31 12:52:26;;;;;;;0.10;0.10;;;9.50;99.90;;;;;;4991292;28;20062;-67
2023/01/31 12:55:07;;;;;;;0.20;0.20;;;9.50;99.90;;;;;;4991504;28;20042;-67
2023/01/31 12:58:05;;;;;;;2.08;0.52;;;9.40;99.90;;;;;;4985807;28;20048;-67
2023/01/31 13:00:39;;;;;;;0.40;0.40;;;9.30;99.90;;;;;;4984648;28;20145;-67
2023/01/31 13:03:17;;;;;;;0.08;0.08;;;9.30;99.90;;;;;;4989751;28;20272;-67
2023/01/31 13:05:53;;;;;;;1.23;1.13;;;9.20;99.90;;;;;;4973758;28;20177;-67
2023/01/31 13:08:23;;;;;;;0.13;0.13;;;9.20;99.90;;;;;;4988328;28;20038;-67
2023/01/31 13:11:03;;;;;;;0.10;0.10;;;9.20;99.90;;;;;;4991039;28;20121;-67
2023/01/31 13:13:37;;;;;;;0.10;0.10;;;9.10;99.90;;;;;;4987469;28;21339;-67
2023/01/31 13:16:23;;;;;;;0.03;0.03;;;9.10;99.90;;;;;;4972238;28;20047;-67
2023/01/31 13:18:53;;;;;;;0.10;0.10;;;9.30;99.90;;;;;;4991044;28;20410;-67
2023/01/31 13:21:28;;;;;;;0.10;0.10;;;9.20;99.90;;;;;;4989674;28;20045;-67
2023/01/31 13:24:01;;;;;;;0.10;0.10;;;9.30;99.90;;;;;;4989913;28;20046;-67
2023/01/31 13:26:31;;;;;;;;;;;9.90;99.90;;;;;;4990009;28;20049;-66